Time;durP1;ratioP1;P1;durP2;ratioP2;P2;SDS_P1;SDS_P2;PMS_P1;PMS_P2;Temp;Humidity;BMP_temperature;BMP_pressure;BME280_temperature;BME280_humidity;BME280_pressure;Samples;Min_cycle;Max_cycle;Signal;HPM_P1;HPM_P2
2021/05/06 00:08:04;;;;;;;;;;;;;;;-142.75;66.51;77727.94;5093206;28;20266;-80
2021/05/06 00:32:01;;;;;;;;;;;;;;;-142.75;67.67;77735.81;5083717;28;19969;-79
2021/05/06 00:34:26;;;;;;;;;;;;;;;-142.75;67.60;77722.00;5071668;28;19934;-78
2021/05/06 00:36:51;;;;;;;;;;;;;;;-142.75;67.55;77739.75;5064901;28;20369;-78
2021/05/06 00:39:28;;;;;;;;;;;;;;;-142.75;67.89;77735.81;5082551;28;19973;-79
2021/05/06 00:45:09;;;;;;;;;;;;;;;-142.75;67.54;77731.88;5088082;28;20447;-83
2021/05/06 00:56:00;;;;;;;;;;;;;;;-142.75;67.18;77722.00;5092864;28;19930;-78
2021/05/06 01:03:51;;;;;;;;;;;;;;;-142.75;67.33;77771.25;5083470;28;19923;-77
2021/05/06 01:06:18;;;;;;;;;;;;;;;-142.75;67.18;77787.00;5070547;28;19940;-78
2021/05/06 01:08:48;;;;;;;;;;;;;;;-142.75;67.39;77798.81;5069529;28;19995;-78
2021/05/06 01:11:31;;;;;;;;;;;;;;;-142.75;67.58;77816.53;5064388;28;19923;-78
2021/05/06 01:14:08;;;;;;;;;;;;;;;-142.75;67.69;77838.19;5065032;28;19924;-80
2021/05/06 01:16:33;;;;;;;;;;;;;;;-142.75;67.88;77848.03;5084371;28;19938;-79
2021/05/06 01:18:59;;;;;;;;;;;;;;;-142.75;67.93;77859.84;5088412;28;19921;-79
2021/05/06 01:21:24;;;;;;;;;;;;;;;-142.75;68.11;77855.91;5086744;28;20370;-77
2021/05/06 01:23:49;;;;;;;;;;;;;;;-142.75;68.27;77859.84;5083832;28;19924;-79
2021/05/06 01:26:40;;;;;;;;;;;;;;;-142.75;68.39;77861.81;5059315;28;19920;-78
2021/05/06 01:29:12;;;;;;;;;;;;;;;-142.75;68.65;77865.75;5084004;28;19916;-80
2021/05/06 01:31:40;;;;;;;;;;;;;;;-142.75;68.79;77857.88;5083674;28;19927;-78
2021/05/06 01:36:38;;;;;;;;;;;;;;;-142.75;68.78;77857.88;5084056;28;19916;-78
2021/05/06 01:41:45;;;;;;;;;;;;;;;-142.75;68.52;77865.75;5082738;28;19956;-78
2021/05/06 01:47:03;;;;;;;;;;;;;;;-142.75;68.46;77873.63;5087757;28;19916;-78
2021/05/06 02:00:14;;;;;;;;;;;;;;;-142.75;68.24;77893.31;5082195;28;19917;-77
2021/05/06 02:02:40;;;;;;;;;;;;;;;-142.75;68.47;77889.38;5066270;28;19947;-79
2021/05/06 02:05:05;;;;;;;;;;;;;;;-142.75;68.61;77891.34;5080468;28;19956;-77
2021/05/06 02:07:31;;;;;;;;;;;;;;;-142.75;68.76;77885.44;5065649;28;20362;-77
2021/05/06 02:09:56;;;;;;;;;;;;;;;-142.75;68.78;77885.44;5084913;28;19924;-77
2021/05/06 02:12:22;;;;;;;;;;;;;;;-142.75;68.86;77897.25;5077845;28;20417;-76
2021/05/06 02:15:01;;;;;;;;;;;;;;;-142.75;68.96;77887.41;5085338;28;20389;-78
2021/05/06 02:17:26;;;;;;;;;;;;;;;-142.75;68.83;77901.19;5084142;28;19916;-77
2021/05/06 02:19:51;;;;;;;;;;;;;;;-142.75;68.79;77907.09;5061613;28;19916;-78
2021/05/06 02:22:17;;;;;;;;;;;;;;;-142.75;68.96;77911.06;5066123;28;19949;-78
2021/05/06 02:24:43;;;;;;;;;;;;;;;-142.75;69.19;77895.28;5079832;28;19916;-77
2021/05/06 02:27:09;;;;;;;;;;;;;;;-142.75;69.19;77901.19;5081345;28;20404;-77
2021/05/06 02:29:34;;;;;;;;;;;;;;;-142.75;69.18;77901.19;5061950;28;19923;-77
2021/05/06 02:31:59;;;;;;;;;;;;;;;-142.75;69.05;77913.03;5078793;28;19916;-77
2021/05/06 02:34:24;;;;;;;;;;;;;;;-142.75;69.07;77920.91;5076650;28;19916;-77
2021/05/06 02:36:49;;;;;;;;;;;;;;;-142.75;68.91;77915.00;5082506;28;20351;-78
2021/05/06 02:39:14;;;;;;;;;;;;;;;-142.75;68.90;77928.78;5064108;28;20399;-77
2021/05/06 02:41:40;;;;;;;;;;;;;;;-142.75;68.97;77930.75;5066062;28;19965;-78
2021/05/06 02:44:05;;;;;;;;;;;;;;;-142.75;69.10;77926.81;5079298;28;19917;-78
2021/05/06 02:46:30;;;;;;;;;;;;;;;-142.75;69.15;77924.84;5063502;28;19962;-77
2021/05/06 02:48:56;;;;;;;;;;;;;;;-142.75;69.29;77928.78;5082700;28;20479;-76
2021/05/06 02:51:26;;;;;;;;;;;;;;;-142.75;69.18;77926.81;5076620;28;20458;-82
2021/05/06 02:53:54;;;;;;;;;;;;;;;-142.75;69.23;77930.75;5064722;28;19962;-77
2021/05/06 03:04:26;;;;;;;;;;;;;;;-142.75;69.17;77942.56;5084469;28;19962;-77
2021/05/06 03:07:01;;;;;;;;;;;;;;;-142.75;69.29;77940.59;5063119;28;19916;-77
2021/05/06 03:25:08;;;;;;;;;;;;;;;-142.75;69.95;77936.66;5089388;28;19916;-79
2021/05/06 03:27:35;;;;;;;;;;;;;;;-142.75;69.92;77938.63;5084204;28;20335;-78
2021/05/06 03:49:15;;;;;;;;;;;;;;;-142.75;70.43;77926.81;5090024;28;19923;-81
2021/05/06 04:18:57;;;;;;;;;;;;;;;-142.75;70.66;77857.88;5085164;28;20057;-84
2021/05/06 04:26:47;;;;;;;;;;;;;;;-142.75;70.48;77859.84;5083285;28;19927;-83
2021/05/06 04:37:26;;;;;;;;;;;;;;;-142.75;70.09;77857.88;5081192;28;19962;-85
2021/05/06 04:40:22;;;;;;;;;;;;;;;-142.75;70.15;77853.94;5068346;28;19950;-84
2021/05/06 04:55:52;;;;;;;;;;;;;;;-142.75;70.09;77830.31;5084304;28;20009;-83
2021/05/06 05:06:32;;;;;;;;;;;;;;;-142.75;69.73;77771.25;5089641;28;19924;-84
2021/05/06 05:27:56;;;;;;;;;;;;;;;-142.75;66.90;77562.53;5022143;28;19921;-82
2021/05/06 05:30:24;;;;;;;;;;;;;;;-142.75;66.27;77497.56;5048917;28;19920;-82
2021/05/06 05:32:49;;;;;;;;;;;;;;;-142.75;65.39;77454.25;5080614;28;20301;-81
2021/05/06 05:35:23;;;;;;;;;;;;;;;-142.75;63.58;77397.13;5076803;28;20027;-82
2021/05/06 05:37:59;;;;;;;;;;;;;;;-142.75;62.74;77363.66;5080859;28;19931;-81
2021/05/06 05:40:33;;;;;;;;;;;;;;;-142.75;62.14;77343.97;5066110;28;20000;-81
2021/05/06 05:56:03;;;;;;;;;;;;;;;-142.75;58.82;77072.28;5077553;28;19923;-81
2021/05/06 05:58:29;;;;;;;;;;;;;;;-142.75;57.11;77025.03;5075588;28;19920;-81
2021/05/06 06:00:54;;;;;;;;;;;;;;;-142.75;56.12;76967.94;5064525;28;19923;-81
2021/05/06 06:03:19;;;;;;;;;;;;;;;-142.75;55.36;76916.75;5088406;28;20006;-79
2021/05/06 06:05:44;;;;;;;;;;;;;;;-142.75;55.05;76940.38;5064133;28;19942;-80
2021/05/06 06:08:09;;;;;;;;;;;;;;;-142.75;55.20;76954.16;5082481;28;19916;-80
2021/05/06 06:10:35;;;;;;;;;;;;;;;-142.75;55.87;76916.75;5065703;28;19916;-80
2021/05/06 06:13:00;;;;;;;;;;;;;;;-142.75;54.59;76893.13;5078784;28;19916;-80
2021/05/06 06:18:10;;;;;;;;;;;;;;;-142.75;53.32;76757.31;5090978;28;20446;-83
2021/05/06 06:20:38;;;;;;;;;;;;;;;-142.75;52.90;76727.78;5070105;28;20301;-83
2021/05/06 06:23:03;;;;;;;;;;;;;;;-142.75;52.44;76727.78;5089905;28;19959;-83
2021/05/06 06:25:28;;;;;;;;;;;;;;;-142.75;51.24;76658.88;5062530;28;19934;-83
2021/05/06 06:27:53;;;;;;;;;;;;;;;-142.75;51.46;76680.53;5066240;28;19939;-84
2021/05/06 06:30:19;;;;;;;;;;;;;;;-142.75;50.42;76633.28;5085282;28;19916;-81
2021/05/06 06:32:44;;;;;;;;;;;;;;;-142.75;50.67;76613.59;5086021;28;19923;-81
2021/05/06 06:35:09;;;;;;;;;;;;;;;-142.75;49.65;76611.63;5087715;28;19916;-83
2021/05/06 06:37:35;;;;;;;;;;;;;;;-142.75;51.85;76763.22;5075456;28;19916;-83
2021/05/06 06:40:00;;;;;;;;;;;;;;;-142.75;52.08;76717.94;5064054;28;19917;-82
2021/05/06 06:42:25;;;;;;;;;;;;;;;-142.75;51.03;76676.59;5084259;28;20381;-82
2021/05/06 06:44:50;;;;;;;;;;;;;;;-142.75;51.51;76712.03;5083088;28;19917;-81
2021/05/06 06:47:16;;;;;;;;;;;;;;;-142.75;50.92;76645.09;5075579;28;19965;-82
2021/05/06 06:49:42;;;;;;;;;;;;;;;-142.75;49.56;76599.81;5082689;28;19927;-84
2021/05/06 06:52:08;;;;;;;;;;;;;;;-142.75;50.39;76666.75;5082516;28;19916;-79
2021/05/06 06:54:33;;;;;;;;;;;;;;;-142.75;50.70;76627.38;5078551;28;19943;-82
2021/05/06 06:56:58;;;;;;;;;;;;;;;-142.75;50.74;76586.03;5081188;28;19920;-81
2021/05/06 06:59:25;;;;;;;;;;;;;;;-142.75;49.62;76544.69;5077746;28;19920;-82
2021/05/06 07:01:50;;;;;;;;;;;;;;;-142.75;50.17;76495.50;5092307;28;19922;-83
2021/05/06 07:04:16;;;;;;;;;;;;;;;-142.75;48.64;76515.19;5072969;28;19947;-82
2021/05/06 07:06:41;;;;;;;;;;;;;;;-142.75;48.66;76546.66;5084697;28;19926;-82
2021/05/06 07:09:09;;;;;;;;;;;;;;;-142.75;49.51;76452.19;5073353;28;19986;-82
2021/05/06 07:11:34;;;;;;;;;;;;;;;-142.75;47.82;76499.44;5092098;28;19916;-81
2021/05/06 07:13:59;;;;;;;;;;;;;;;-142.75;48.63;76625.41;5098080;28;19923;-80
2021/05/06 07:16:24;;;;;;;;;;;;;;;-142.75;50.46;76566.34;5066203;28;19916;-82
2021/05/06 07:18:50;;;;;;;;;;;;;;;-142.75;49.04;76444.31;5068354;28;19992;-82
2021/05/06 07:21:15;;;;;;;;;;;;;;;-142.75;46.01;76338.03;5078870;28;19915;-81
2021/05/06 07:23:40;;;;;;;;;;;;;;;-142.75;46.13;76326.22;5078941;28;19923;-83
2021/05/06 07:26:06;;;;;;;;;;;;;;;-142.75;45.65;76363.59;5057912;28;19923;-82
2021/05/06 07:28:31;;;;;;;;;;;;;;;-142.75;46.55;76436.44;5064266;28;19920;-82
2021/05/06 07:31:00;;;;;;;;;;;;;;;-142.75;48.08;76530.91;5095959;28;19922;-81
2021/05/06 07:33:25;;;;;;;;;;;;;;;-142.75;48.75;76617.53;5062848;28;19923;-79
2021/05/06 07:35:51;;;;;;;;;;;;;;;-142.75;49.11;76712.03;5100158;28;19920;-79
2021/05/06 07:38:17;;;;;;;;;;;;;;;-142.75;50.82;76759.28;5097322;28;20392;-78
2021/05/06 07:40:43;;;;;;;;;;;;;;;-142.75;52.35;76802.56;5072955;28;19962;-80
2021/05/06 07:43:08;;;;;;;;;;;;;;;-142.75;51.87;76861.63;5064934;28;20275;-79
2021/05/06 07:45:33;;;;;;;;;;;;;;;-142.75;53.54;76879.34;5087706;28;19916;-79
2021/05/06 07:48:00;;;;;;;;;;;;;;;-142.75;53.77;76901.00;5093859;28;20394;-77
2021/05/06 07:50:26;;;;;;;;;;;;;;;-142.75;53.72;76901.00;5080631;28;19916;-79
2021/05/06 07:52:54;;;;;;;;;;;;;;;-142.75;55.04;76871.47;5069873;28;19931;-80
2021/05/06 07:55:20;;;;;;;;;;;;;;;-142.75;52.47;76723.84;5061103;28;19969;-80
2021/05/06 07:57:45;;;;;;;;;;;;;;;-142.75;50.79;76605.72;5081404;28;19916;-79
2021/05/06 08:00:13;;;;;;;;;;;;;;;-142.75;47.54;76444.31;5093131;28;19985;-80
2021/05/06 08:02:38;;;;;;;;;;;;;;;-142.75;46.64;76322.28;5087520;28;19970;-80
2021/05/06 08:05:04;;;;;;;;;;;;;;;-142.75;44.46;76345.91;5087796;28;19921;-78
2021/05/06 08:07:29;;;;;;;;;;;;;;;-142.75;45.87;76430.53;5094232;28;20051;-77
2021/05/06 08:09:54;;;;;;;;;;;;;;;-142.75;47.74;76460.06;5069545;28;20087;-80
2021/05/06 08:12:21;;;;;;;;;;;;;;;-142.75;46.84;76562.41;5096497;28;20404;-80
2021/05/06 08:14:46;;;;;;;;;;;;;;;-142.75;48.82;76613.59;5098306;28;19939;-78
2021/05/06 08:17:11;;;;;;;;;;;;;;;-142.75;49.85;76662.81;5080181;28;20381;-78
2021/05/06 08:19:37;;;;;;;;;;;;;;;-142.75;50.08;76763.22;5077710;28;19973;-79
2021/05/06 08:22:02;;;;;;;;;;;;;;;-142.75;50.43;76830.13;5083609;28;20835;-79
2021/05/06 08:24:27;;;;;;;;;;;;;;;-142.75;49.10;76591.94;5060143;28;19916;-79
2021/05/06 08:26:53;;;;;;;;;;;;;;;-142.75;49.41;76619.50;5085030;28;20018;-78
2021/05/06 08:29:18;;;;;;;;;;;;;;;-142.75;49.19;76617.53;5082253;28;19923;-78
2021/05/06 08:31:43;;;;;;;;;;;;;;;-142.75;48.89;76641.16;5060988;28;20002;-81
2021/05/06 08:34:08;;;;;;;;;;;;;;;-142.75;49.43;76603.75;5068632;28;19919;-83
2021/05/06 08:36:33;;;;;;;;;;;;;;;-142.75;49.60;76605.72;5078528;28;19920;-82
2021/05/06 08:38:59;;;;;;;;;;;;;;;-142.75;49.21;76645.09;5080295;28;20401;-82
2021/05/06 08:41:24;;;;;;;;;;;;;;;-142.75;48.40;76637.22;5096514;28;20385;-80
2021/05/06 08:43:56;;;;;;;;;;;;;;;-142.75;48.54;76649.03;5063577;28;20134;-79
2021/05/06 08:46:21;;;;;;;;;;;;;;;-142.75;48.75;76682.50;5063821;28;19925;-80
2021/05/06 08:48:47;;;;;;;;;;;;;;;-142.75;48.84;76708.09;5094041;28;19916;-79
2021/05/06 08:51:13;;;;;;;;;;;;;;;-142.75;50.14;76725.81;5077251;28;19938;-81
2021/05/06 08:53:39;;;;;;;;;;;;;;;-142.75;50.23;76751.41;5095950;28;20519;-80
2021/05/06 08:56:04;;;;;;;;;;;;;;;-142.75;47.60;76647.06;5077105;28;19916;-80
2021/05/06 08:58:29;;;;;;;;;;;;;;;-142.75;47.42;76485.66;5062295;28;19920;-81
2021/05/06 09:00:54;;;;;;;;;;;;;;;-142.75;45.15;76235.66;5089085;28;19971;-81
2021/05/06 09:03:19;;;;;;;;;;;;;;;-142.75;43.29;76078.19;5086600;28;19923;-82
2021/05/06 09:06:04;;;;;;;;;;;;;;;-142.75;42.44;76188.44;5067575;28;19963;-81
2021/05/06 09:08:35;;;;;;;;;;;;;;;-142.75;44.48;76334.09;5081388;28;20652;-81
2021/05/06 09:11:00;;;;;;;;;;;;;;;-142.75;45.84;76391.16;5084198;28;20010;-79
2021/05/06 09:13:27;;;;;;;;;;;;;;;-142.75;44.20;76448.25;5072886;28;19970;-80
2021/05/06 09:15:52;;;;;;;;;;;;;;;-142.75;44.04;76304.56;5065164;28;19962;-81
2021/05/06 09:18:34;;;;;;;;;;;;;;;-142.75;41.96;76326.22;5089640;28;19928;-80
2021/05/06 09:20:59;;;;;;;;;;;;;;;-142.75;44.92;76353.78;5082025;28;20281;-79
2021/05/06 09:23:24;;;;;;;;;;;;;;;-142.75;44.63;76395.09;5079124;28;19916;-79
2021/05/06 09:25:49;;;;;;;;;;;;;;;-142.75;44.79;76428.56;5070620;28;19931;-81
2021/05/06 09:28:14;;;;;;;;;;;;;;;-142.75;43.88;76404.94;5089056;28;19916;-79
2021/05/06 09:30:46;;;;;;;;;;;;;;;-142.75;45.15;76458.09;5076493;28;20404;-78
2021/05/06 09:33:11;;;;;;;;;;;;;;;-142.75;46.59;76542.72;5091826;28;19924;-80
2021/05/06 09:35:41;;;;;;;;;;;;;;;-142.75;46.18;76609.66;5099314;28;19916;-78
2021/05/06 09:38:21;;;;;;;;;;;;;;;-142.75;47.37;76621.47;5075403;28;19946;-81
2021/05/06 09:40:46;;;;;;;;;;;;;;;-142.75;44.89;76786.84;5054286;28;19927;-77
2021/05/06 09:43:32;;;;;;;;;;;;;;;-142.75;47.93;76958.09;5075585;28;19921;-79
2021/05/06 09:45:58;;;;;;;;;;;;;;;-142.75;49.32;77046.69;5060009;28;19965;-79
2021/05/06 09:48:23;;;;;;;;;;;;;;;-142.75;50.24;77113.63;5082195;28;19928;-79
2021/05/06 09:50:56;;;;;;;;;;;;;;;-142.75;51.06;77113.63;5066094;28;19915;-78
2021/05/06 09:53:23;;;;;;;;;;;;;;;-142.75;51.53;77125.44;5062895;28;19971;-80
2021/05/06 09:55:49;;;;;;;;;;;;;;;-142.75;52.12;77129.38;5063862;28;19951;-79
2021/05/06 09:58:25;;;;;;;;;;;;;;;-142.75;52.47;77154.97;5088298;28;20337;-79
2021/05/06 10:00:51;;;;;;;;;;;;;;;-142.75;53.44;77223.88;5091588;28;20001;-77
2021/05/06 10:03:17;;;;;;;;;;;;;;;-142.75;54.46;77255.38;5082442;28;20282;-79
2021/05/06 10:05:43;;;;;;;;;;;;;;;-142.75;57.10;77310.50;5066856;28;20386;-81
2021/05/06 10:08:09;;;;;;;;;;;;;;;-142.75;58.14;77334.13;5054413;28;19917;-78
2021/05/06 10:10:36;;;;;;;;;;;;;;;-142.75;59.12;77367.59;5067418;28;20003;-80
2021/05/06 10:13:03;;;;;;;;;;;;;;;-142.75;59.63;77361.69;5076294;28;20015;-81
2021/05/06 10:15:28;;;;;;;;;;;;;;;-142.75;60.33;77371.53;5056984;28;19920;-80
2021/05/06 10:17:55;;;;;;;;;;;;;;;-142.75;60.28;77365.63;5057845;28;20370;-80
2021/05/06 10:20:23;;;;;;;;;;;;;;;-142.75;59.91;77377.44;5058504;28;19917;-82
2021/05/06 10:22:49;;;;;;;;;;;;;;;-142.75;59.48;77377.44;5059882;28;20351;-79
2021/05/06 10:25:14;;;;;;;;;;;;;;;-142.75;59.80;77379.41;5066218;28;19970;-80
2021/05/06 10:27:40;;;;;;;;;;;;;;;-142.75;60.53;77363.66;5053342;28;19916;-82
2021/05/06 10:30:06;;;;;;;;;;;;;;;-142.75;60.66;77353.81;5071335;28;19925;-81
2021/05/06 10:32:32;;;;;;;;;;;;;;;-142.75;60.56;77302.63;5051502;28;19931;-77
2021/05/06 10:35:05;;;;;;;;;;;;;;;-142.75;60.20;77251.44;5051101;28;20386;-77
2021/05/06 10:37:34;;;;;;;;;;;;;;;-142.75;60.07;77204.19;5088357;28;19923;-78
2021/05/06 10:39:59;;;;;;;;;;;;;;;-142.75;60.29;77166.78;5088068;28;20320;-77
2021/05/06 10:42:24;;;;;;;;;;;;;;;-142.75;59.10;77113.63;5064460;28;20027;-78
2021/05/06 10:44:50;;;;;;;;;;;;;;;-142.75;58.35;77070.31;5079354;28;19916;-77
2021/05/06 10:47:17;;;;;;;;;;;;;;;-142.75;56.10;77048.66;5068279;28;19956;-77
2021/05/06 10:49:42;;;;;;;;;;;;;;;-142.75;56.73;77044.72;5068683;28;19923;-77
2021/05/06 10:52:09;;;;;;;;;;;;;;;-142.75;57.68;77066.38;5086114;28;19924;-77
2021/05/06 10:54:40;;;;;;;;;;;;;;;-142.75;56.38;77109.69;5090700;28;19923;-78
2021/05/06 10:57:11;;;;;;;;;;;;;;;-142.75;57.57;77178.59;5077596;28;19916;-79
2021/05/06 10:59:40;;;;;;;;;;;;;;;-142.75;57.82;77237.66;5061827;28;19921;-79
2021/05/06 11:02:10;;;;;;;;;;;;;;;-142.75;58.42;77292.78;5064206;28;19985;-79
2021/05/06 11:04:42;;;;;;;;;;;;;;;-142.75;59.69;77330.19;5089161;28;19916;-79
2021/05/06 11:07:12;;;;;;;;;;;;;;;-142.75;60.46;77338.06;5074020;28;19916;-77
2021/05/06 11:09:37;;;;;;;;;;;;;;;-142.75;59.88;77343.97;5092223;28;19923;-78
2021/05/06 11:12:14;;;;;;;;;;;;;;;-142.75;60.81;77359.72;5095968;28;19916;-78
2021/05/06 11:14:57;;;;;;;;;;;;;;;-142.75;61.58;77367.59;5090784;28;19927;-77
2021/05/06 11:17:23;;;;;;;;;;;;;;;-142.75;61.40;77361.69;5056720;28;19986;-78
2021/05/06 11:19:48;;;;;;;;;;;;;;;-142.75;60.87;77334.13;5074174;28;20394;-79
2021/05/06 11:22:33;;;;;;;;;;;;;;;-142.75;60.29;77320.34;5069489;28;19920;-78
2021/05/06 11:24:58;;;;;;;;;;;;;;;-142.75;60.40;77269.16;5061606;28;19962;-77
2021/05/06 11:27:33;;;;;;;;;;;;;;;-142.75;58.85;77239.63;5089105;28;19916;-79
2021/05/06 11:30:19;;;;;;;;;;;;;;;-142.75;59.02;77188.44;5092692;28;20433;-78
2021/05/06 11:32:49;;;;;;;;;;;;;;;-142.75;59.19;77129.38;5096750;28;19939;-79
2021/05/06 11:35:14;;;;;;;;;;;;;;;-142.75;57.07;77074.25;5071221;28;20455;-78
2021/05/06 11:37:51;;;;;;;;;;;;;;;-142.75;57.44;77030.94;5063404;28;19920;-78
2021/05/06 11:40:21;;;;;;;;;;;;;;;-142.75;55.29;76969.91;5082366;28;19925;-78
2021/05/06 11:42:46;;;;;;;;;;;;;;;-142.75;54.50;76928.56;5082434;28;19922;-77
2021/05/06 11:45:13;;;;;;;;;;;;;;;-142.75;52.91;76893.13;5075288;28;20022;-76
2021/05/06 11:47:39;;;;;;;;;;;;;;;-142.75;53.36;76861.63;5075260;28;20392;-76
2021/05/06 11:50:13;;;;;;;;;;;;;;;-142.75;52.56;76806.50;5093131;28;19916;-76
2021/05/06 11:52:39;;;;;;;;;;;;;;;-142.75;53.44;76749.44;5107992;22;19928;-79
2021/05/06 11:55:04;;;;;;;;;;;;;;;-142.75;52.59;76704.16;5064600;28;20464;-77
2021/05/06 11:57:29;;;;;;;;;;;;;;;-142.75;49.88;76696.28;5065771;28;19920;-77
2021/05/06 11:59:55;;;;;;;;;;;;;;;-142.75;50.97;76678.56;5092668;28;19928;-79
2021/05/06 12:02:23;;;;;;;;;;;;;;;-142.75;52.00;76680.53;5084894;28;19917;-80
2021/05/06 12:04:51;;;;;;;;;;;;;;;-142.75;51.04;76682.50;5069192;28;19923;-79
2021/05/06 12:07:20;;;;;;;;;;;;;;;-142.75;52.31;76649.03;5072001;28;19917;-81
2021/05/06 12:09:45;;;;;;;;;;;;;;;-142.75;50.64;76617.53;5056666;28;19916;-80
2021/05/06 12:12:19;;;;;;;;;;;;;;;-142.75;49.68;76597.84;5071025;28;19924;-85
2021/05/06 12:14:44;;;;;;;;;;;;;;;-142.75;47.51;76603.75;5076344;28;20003;-82
2021/05/06 12:17:09;;;;;;;;;;;;;;;-142.75;47.87;76615.56;5057539;28;19927;-82
2021/05/06 12:19:45;;;;;;;;;;;;;;;-142.75;48.07;76654.94;5059250;28;20355;-81
2021/05/06 12:22:11;;;;;;;;;;;;;;;-142.75;50.55;76664.78;5076879;28;19920;-80
2021/05/06 12:24:37;;;;;;;;;;;;;;;-142.75;50.47;76641.16;5072839;28;19963;-80
2021/05/06 12:27:16;;;;;;;;;;;;;;;-142.75;49.29;76605.72;5073718;28;19963;-80
2021/05/06 12:29:42;;;;;;;;;;;;;;;-142.75;48.97;76572.25;5074557;28;19924;-80
2021/05/06 12:32:15;;;;;;;;;;;;;;;-142.75;47.21;76562.41;5061905;28;19920;-81
2021/05/06 12:34:40;;;;;;;;;;;;;;;-142.75;49.57;76580.13;5071192;28;19931;-77
2021/05/06 12:37:05;;;;;;;;;;;;;;;-142.75;47.24;76586.03;5071381;28;20374;-79
2021/05/06 12:39:31;;;;;;;;;;;;;;;-142.75;47.58;76566.34;5069817;28;19943;-80
2021/05/06 12:42:00;;;;;;;;;;;;;;;-142.75;45.50;76582.09;5069792;28;19920;-81
2021/05/06 12:44:43;;;;;;;;;;;;;;;-142.75;46.78;76603.75;5052403;28;20396;-78
2021/05/06 12:47:18;;;;;;;;;;;;;;;-142.75;47.73;76582.09;5047998;28;19917;-77
2021/05/06 12:49:45;;;;;;;;;;;;;;;-142.75;45.65;76560.44;5068567;28;20294;-79
2021/05/06 12:52:29;;;;;;;;;;;;;;;-142.75;44.59;76578.16;5069248;28;20460;-78
2021/05/06 12:54:54;;;;;;;;;;;;;;;-142.75;47.04;76534.84;5062074;28;19924;-78
2021/05/06 12:57:19;;;;;;;;;;;;;;;-142.75;46.02;76511.25;5061179;28;20381;-79
2021/05/06 12:59:49;;;;;;;;;;;;;;;-142.75;44.99;76501.41;5046706;28;19921;-78
2021/05/06 13:02:15;;;;;;;;;;;;;;;-142.75;43.86;76503.38;5046071;28;19916;-79
2021/05/06 13:04:51;;;;;;;;;;;;;;;-142.75;45.18;76519.13;5045037;28;19932;-78
2021/05/06 13:07:17;;;;;;;;;;;;;;;-142.75;45.41;76521.09;5044301;28;20301;-78
2021/05/06 13:09:44;;;;;;;;;;;;;;;-142.75;42.51;76558.47;5063624;28;19917;-78
2021/05/06 13:12:11;;;;;;;;;;;;;;;-142.75;46.24;76574.22;5045561;28;19923;-77
2021/05/06 13:14:50;;;;;;;;;;;;;;;-142.75;42.89;76582.09;5061595;28;19916;-77
2021/05/06 13:17:29;;;;;;;;;;;;;;;-142.75;47.68;76566.34;5046191;28;20375;-76
2021/05/06 13:19:55;;;;;;;;;;;;;;;-142.75;46.86;76556.50;5060660;28;20448;-78
2021/05/06 13:22:21;;;;;;;;;;;;;;;-142.75;46.90;76558.47;5045114;28;19920;-78
2021/05/06 13:24:49;;;;;;;;;;;;;;;-142.75;45.54;76560.44;5062641;28;19917;-78
2021/05/06 13:27:19;;;;;;;;;;;;;;;-142.75;44.11;76589.97;5047255;28;19978;-77
2021/05/06 13:29:48;;;;;;;;;;;;;;;-142.75;44.02;76591.94;5062635;28;20008;-77
2021/05/06 13:32:13;;;;;;;;;;;;;;;-142.75;46.13;76582.09;5046830;28;19916;-78
2021/05/06 13:34:51;;;;;;;;;;;;;;;-142.75;44.70;76586.03;5043318;28;19965;-78
2021/05/06 13:37:17;;;;;;;;;;;;;;;-142.75;45.12;76572.25;5060960;28;20302;-77
2021/05/06 13:39:42;;;;;;;;;;;;;;;-142.75;45.46;76546.66;5044225;28;19921;-79
2021/05/06 13:42:07;;;;;;;;;;;;;;;-142.75;45.69;76536.84;5064283;28;19939;-74
2021/05/06 13:44:34;;;;;;;;;;;;;;;-142.75;46.51;76515.19;5060888;28;19963;-77
2021/05/06 13:47:04;;;;;;;;;;;;;;;-142.75;44.92;76505.34;5055818;28;19927;-77
2021/05/06 13:49:31;;;;;;;;;;;;;;;-142.75;46.41;76485.66;5041269;28;20170;-77
2021/05/06 13:51:57;;;;;;;;;;;;;;;-142.75;45.29;76473.84;5059869;28;19924;-77
2021/05/06 13:54:23;;;;;;;;;;;;;;;-142.75;44.65;76460.06;5064247;28;20290;-76
2021/05/06 13:56:49;;;;;;;;;;;;;;;-142.75;42.84;76452.19;5062512;28;19979;-77
2021/05/06 13:59:14;;;;;;;;;;;;;;;-142.75;44.28;76436.44;5060935;28;19921;-77
2021/05/06 14:01:39;;;;;;;;;;;;;;;-142.75;44.26;76432.50;5057478;28;19959;-77
2021/05/06 14:04:05;;;;;;;;;;;;;;;-142.75;41.30;76448.25;5063855;28;19964;-77
2021/05/06 14:06:30;;;;;;;;;;;;;;;-142.75;44.92;76456.13;5063382;28;19983;-77
2021/05/06 14:08:55;;;;;;;;;;;;;;;-142.75;46.12;76456.13;5059582;28;19921;-77
2021/05/06 14:11:21;;;;;;;;;;;;;;;-142.75;42.24;76456.13;5060609;28;19927;-77
2021/05/06 14:13:46;;;;;;;;;;;;;;;-142.75;42.11;76497.47;5064745;28;20275;-77
2021/05/06 14:16:11;;;;;;;;;;;;;;;-142.75;42.32;76540.75;5045322;28;19917;-77
2021/05/06 14:18:38;;;;;;;;;;;;;;;-142.75;45.84;76525.03;5063144;28;19920;-77
2021/05/06 14:21:04;;;;;;;;;;;;;;;-142.75;43.69;76509.28;5060524;28;20300;-80
2021/05/06 14:23:30;;;;;;;;;;;;;;;-142.75;43.70;76515.19;5062069;28;19917;-77
2021/05/06 14:25:55;;;;;;;;;;;;;;;-142.75;46.06;76515.19;5060995;28;19916;-78
2021/05/06 14:28:21;;;;;;;;;;;;;;;-142.75;43.53;76507.31;5063038;28;20341;-77
2021/05/06 14:30:46;;;;;;;;;;;;;;;-142.75;43.47;76499.44;5062614;28;19923;-78
2021/05/06 14:33:11;;;;;;;;;;;;;;;-142.75;44.30;76505.34;5044679;28;20294;-79
2021/05/06 14:35:38;;;;;;;;;;;;;;;-142.75;43.88;76536.84;5059216;28;19920;-78
2021/05/06 14:38:07;;;;;;;;;;;;;;;-142.75;44.71;76548.63;5062951;28;19924;-79
2021/05/06 14:40:32;;;;;;;;;;;;;;;-142.75;44.15;76550.59;5042345;28;20011;-78
2021/05/06 14:42:57;;;;;;;;;;;;;;;-142.75;45.05;76556.50;5044955;28;20026;-78
2021/05/06 14:45:22;;;;;;;;;;;;;;;-142.75;45.67;76570.28;5062264;28;19962;-81
2021/05/06 14:47:48;;;;;;;;;;;;;;;-142.75;45.61;76609.66;5061557;28;19978;-77
2021/05/06 14:50:14;;;;;;;;;;;;;;;-142.75;46.11;76601.78;5059206;28;19916;-79
2021/05/06 14:52:39;;;;;;;;;;;;;;;-142.75;43.92;76629.34;5058815;28;19917;-75
2021/05/06 14:55:06;;;;;;;;;;;;;;;-142.75;45.32;76651.00;5042903;28;19917;-78
2021/05/06 14:57:31;;;;;;;;;;;;;;;-142.75;48.37;76670.69;5059153;28;20405;-78
2021/05/06 14:59:56;;;;;;;;;;;;;;;-142.75;46.03;76686.44;5064808;28;20005;-79
2021/05/06 15:02:21;;;;;;;;;;;;;;;-142.75;46.45;76696.28;5049383;28;19917;-78
2021/05/06 15:04:46;;;;;;;;;;;;;;;-142.75;47.27;76706.13;5062329;28;19917;-78
2021/05/06 15:07:12;;;;;;;;;;;;;;;-142.75;46.42;76706.13;5063242;28;19924;-78
2021/05/06 15:09:37;;;;;;;;;;;;;;;-142.75;45.31;76708.09;5069936;28;19917;-77
2021/05/06 15:12:02;;;;;;;;;;;;;;;-142.75;46.61;76714.00;5066116;28;19939;-79
2021/05/06 15:14:28;;;;;;;;;;;;;;;-142.75;46.86;76715.97;5045663;28;19917;-79
2021/05/06 15:16:53;;;;;;;;;;;;;;;-142.75;45.53;76712.03;5049116;28;19942;-80
2021/05/06 15:19:21;;;;;;;;;;;;;;;-142.75;45.42;76733.69;5047202;28;20016;-78
2021/05/06 15:21:46;;;;;;;;;;;;;;;-142.75;46.02;76759.28;5066121;28;19922;-78
2021/05/06 15:24:12;;;;;;;;;;;;;;;-142.75;47.39;76767.16;5067470;28;19917;-77
2021/05/06 15:26:37;;;;;;;;;;;;;;;-142.75;44.68;76775.03;5051858;28;19916;-78
2021/05/06 15:29:06;;;;;;;;;;;;;;;-142.75;46.07;76794.69;5067075;28;19928;-77
2021/05/06 15:31:31;;;;;;;;;;;;;;;-142.75;46.17;76794.69;5047358;28;19970;-76
2021/05/06 15:33:58;;;;;;;;;;;;;;;-142.75;46.17;76806.50;5047990;28;20339;-79
2021/05/06 15:36:23;;;;;;;;;;;;;;;-142.75;46.89;76814.38;5046516;28;20023;-78
2021/05/06 15:38:49;;;;;;;;;;;;;;;-142.75;47.64;76818.31;5047028;28;19974;-77
2021/05/06 15:41:14;;;;;;;;;;;;;;;-142.75;46.59;76824.22;5052440;28;19916;-77
2021/05/06 15:43:39;;;;;;;;;;;;;;;-142.75;46.76;76830.13;5064673;28;19916;-78
2021/05/06 15:46:06;;;;;;;;;;;;;;;-142.75;47.27;76832.09;5064000;28;20497;-79
2021/05/06 15:48:32;;;;;;;;;;;;;;;-142.75;48.11;76843.91;5064249;28;19995;-78
2021/05/06 15:50:59;;;;;;;;;;;;;;;-142.75;46.90;76849.81;5046673;28;20091;-78
2021/05/06 15:53:27;;;;;;;;;;;;;;;-142.75;46.68;76857.69;5066181;28;19923;-78